createdAt,value
2019-04-10T03:00:59.051Z,9.80
2019-04-10T03:03:30.523Z,9.80
2019-04-10T03:05:59.840Z,9.70
2019-04-10T03:08:50.492Z,9.70
2019-04-10T03:11:04.350Z,9.80
2019-04-10T03:13:31.719Z,9.70
2019-04-10T03:16:01.315Z,9.80
2019-04-10T03:18:30.595Z,9.70
2019-04-10T03:20:59.855Z,9.70
2019-04-10T03:23:29.464Z,9.70
2019-04-10T03:25:59.472Z,9.70
2019-04-10T03:28:29.214Z,9.70
2019-04-10T03:31:02.243Z,9.70
2019-04-10T03:33:33.760Z,9.70
2019-04-10T03:36:03.187Z,9.60
2019-04-10T03:38:33.995Z,9.60
2019-04-10T03:41:04.032Z,9.60
2019-04-10T03:43:33.974Z,9.60
2019-04-10T03:46:03.578Z,9.60
2019-04-10T03:48:33.403Z,9.60
2019-04-10T03:51:03.879Z,9.50
2019-04-10T03:53:34.072Z,9.50
2019-04-10T03:56:03.395Z,9.50
2019-04-10T03:58:33.606Z,9.50
2019-04-10T04:01:04.812Z,9.30
2019-04-10T04:03:35.062Z,9.30
2019-04-10T04:06:04.508Z,9.30
2019-04-10T04:08:33.782Z,9.30
2019-04-10T04:11:04.839Z,9.20
2019-04-10T04:13:35.451Z,9.20
2019-04-10T04:16:05.222Z,9.20
2019-04-10T04:18:35.351Z,9.20
2019-04-10T04:21:05.588Z,9.10
2019-04-10T04:23:36.113Z,9.10
2019-04-10T04:26:05.885Z,9.10
2019-04-10T04:28:36.209Z,9.10
2019-04-10T04:31:05.618Z,9.10
2019-04-10T04:33:36.078Z,9.00
2019-04-10T04:36:06.135Z,9.00
2019-04-10T04:38:36.814Z,9.00
2019-04-10T04:41:07.483Z,8.90
2019-04-10T04:43:37.157Z,8.90
2019-04-10T04:46:06.426Z,8.90
2019-04-10T04:48:36.691Z,8.80
2019-04-10T04:51:06.684Z,8.80
2019-04-10T04:53:36.405Z,8.80
2019-04-10T04:56:05.946Z,8.80
2019-04-10T04:58:36.063Z,8.70
2019-04-10T05:01:06.294Z,8.80
2019-04-10T05:03:35.999Z,8.80
2019-04-10T05:06:08.052Z,8.70
2019-04-10T05:08:37.857Z,8.70
2019-04-10T05:11:07.231Z,8.70
2019-04-10T05:13:38.290Z,8.70
2019-04-10T05:16:08.178Z,8.70
2019-04-10T05:18:37.852Z,8.80
2019-04-10T05:21:07.122Z,8.80
2019-04-10T05:23:36.382Z,8.70
2019-04-10T05:26:06.097Z,8.80
2019-04-10T05:28:36.237Z,8.70
2019-04-10T05:31:06.646Z,8.70
2019-04-10T05:33:36.741Z,8.70
2019-04-10T05:36:06.955Z,8.80
2019-04-10T05:38:36.365Z,8.70
2019-04-10T05:41:05.626Z,8.80
2019-04-10T05:43:34.906Z,8.80
2019-04-10T05:46:04.893Z,8.80
2019-04-10T05:48:34.318Z,8.80
2019-04-10T05:51:05.696Z,8.80
2019-04-10T05:53:34.879Z,8.80
2019-04-10T05:56:04.133Z,8.80
2019-04-10T05:58:33.462Z,8.80
2019-04-10T06:01:05.336Z,8.80
2019-04-10T06:03:34.722Z,8.80
2019-04-10T06:06:04.195Z,8.80
2019-04-10T06:08:33.441Z,8.80
2019-04-10T06:11:03.093Z,8.80
2019-04-10T06:13:32.619Z,8.80
2019-04-10T06:16:02.024Z,8.80
2019-04-10T06:18:31.406Z,8.80
2019-04-10T06:21:01.043Z,8.80
2019-04-10T06:23:30.320Z,8.80
2019-04-10T06:26:00.527Z,8.80
2019-04-10T06:28:30.978Z,8.80
2019-04-10T06:31:00.728Z,8.90
2019-04-10T06:33:30.321Z,8.90
2019-04-10T06:36:00.817Z,8.80
2019-04-10T06:38:30.781Z,8.90
2019-04-10T06:41:00.191Z,9.00
2019-04-10T06:43:30.744Z,9.00
2019-04-10T06:46:00.406Z,9.00
2019-04-10T06:48:29.674Z,9.00
2019-04-10T06:50:59.821Z,9.10
2019-04-10T06:53:29.438Z,9.10
2019-04-10T06:55:58.708Z,9.10
2019-04-10T06:58:28.263Z,9.20
2019-04-10T07:00:58.067Z,9.30
2019-04-10T07:03:44.897Z,9.30
2019-04-10T07:06:09.015Z,9.40
2019-04-10T07:08:31.972Z,9.40
2019-04-10T07:11:05.977Z,9.40
2019-04-10T07:13:36.821Z,9.50
2019-04-10T07:16:04.242Z,9.60
2019-04-10T07:18:35.871Z,9.70
2019-04-10T07:21:06.312Z,9.70
2019-04-10T07:23:36.596Z,9.80
2019-04-10T07:26:06.073Z,9.90
2019-04-10T07:28:37.804Z,10.00
2019-04-10T07:31:08.489Z,10.00
2019-04-10T07:33:37.398Z,10.00
2019-04-10T07:36:12.152Z,10.10
2019-04-10T07:38:39.296Z,10.10
2019-04-10T07:41:14.348Z,10.20
2019-04-10T07:43:40.594Z,10.30
2019-04-10T07:46:10.044Z,10.30
2019-04-10T07:48:39.336Z,10.40
2019-04-10T07:51:09.109Z,10.40
2019-04-10T07:53:39.546Z,10.40
2019-04-10T07:56:13.553Z,10.60
2019-04-10T07:58:40.092Z,10.60
2019-04-10T08:01:09.885Z,10.60
2019-04-10T08:03:39.598Z,10.70
2019-04-10T08:06:09.067Z,10.80
2019-04-10T08:08:38.410Z,10.80
2019-04-10T08:11:07.678Z,10.70
2019-04-10T08:13:37.207Z,10.80
2019-04-10T08:16:06.482Z,10.80
2019-04-10T08:18:37.191Z,10.90
2019-04-10T08:21:07.113Z,10.90
2019-04-10T08:23:36.590Z,11.00
2019-04-10T08:26:05.860Z,10.90
2019-04-10T08:28:35.126Z,10.90
2019-04-10T08:31:06.489Z,11.00
2019-04-10T08:33:36.693Z,11.10
2019-04-10T08:36:07.468Z,11.10
2019-04-10T08:38:37.892Z,11.10
2019-04-10T08:41:08.621Z,11.20
2019-04-10T08:43:38.175Z,11.20
2019-04-10T08:46:08.675Z,11.20
2019-04-10T08:48:39.086Z,11.30
2019-04-10T08:51:08.748Z,11.40
2019-04-10T08:53:38.422Z,11.40
2019-04-10T08:56:07.694Z,11.40
2019-04-10T08:58:37.073Z,11.50
2019-04-10T09:01:07.243Z,11.70
2019-04-10T09:03:37.144Z,11.80
2019-04-10T09:06:07.196Z,11.90
2019-04-10T09:08:37.225Z,12.00
2019-04-10T09:11:07.128Z,12.20
2019-04-10T09:13:36.856Z,12.20
2019-04-10T09:16:06.706Z,12.20
2019-04-10T09:18:37.160Z,12.10
2019-04-10T09:21:07.139Z,12.00
2019-04-10T09:23:44.759Z,12.10
2019-04-10T09:26:08.001Z,12.20
2019-04-10T09:28:38.338Z,12.40
2019-04-10T09:31:07.887Z,12.50
2019-04-10T09:33:37.491Z,12.70
2019-04-10T09:36:06.912Z,12.90
2019-04-10T09:38:36.946Z,13.00
2019-04-10T09:41:06.254Z,13.10
2019-04-10T09:43:36.504Z,13.20
2019-04-10T09:46:06.440Z,13.40
2019-04-10T09:48:35.917Z,13.70
2019-04-10T09:51:05.527Z,13.90
2019-04-10T09:53:35.158Z,13.90
2019-04-10T09:56:05.229Z,14.00
2019-04-10T09:58:34.698Z,14.10
2019-04-10T10:01:08.402Z,14.00
2019-04-10T10:03:37.722Z,14.10
2019-04-10T10:06:07.066Z,14.20
2019-04-10T10:08:36.626Z,14.10
2019-04-10T10:11:06.496Z,14.00
2019-04-10T10:13:35.762Z,14.00
2019-04-10T10:16:06.299Z,14.00
2019-04-10T10:18:35.758Z,14.00
2019-04-10T10:21:05.219Z,14.00
2019-04-10T10:23:34.495Z,13.90
2019-04-10T10:26:03.940Z,14.20
2019-04-10T10:28:33.459Z,14.40
2019-04-10T10:31:02.718Z,14.40
2019-04-10T10:33:32.298Z,14.50
2019-04-10T10:36:03.333Z,14.60
2019-04-10T10:38:32.878Z,14.70
2019-04-10T10:41:02.140Z,14.60
2019-04-10T10:43:32.193Z,14.60
2019-04-10T10:46:02.951Z,14.70
2019-04-10T10:48:32.650Z,14.60
2019-04-10T10:51:02.413Z,14.50
2019-04-10T10:53:32.410Z,14.60
2019-04-10T10:56:02.218Z,14.70
2019-04-10T10:58:32.178Z,14.80
2019-04-10T11:01:01.527Z,15.00
2019-04-10T11:03:32.012Z,15.20
2019-04-10T11:06:02.416Z,15.30
2019-04-10T11:08:31.812Z,15.60
2019-04-10T11:11:01.175Z,15.80
2019-04-10T11:13:30.886Z,15.80
2019-04-10T11:16:03.956Z,16.00
2019-04-10T11:18:32.647Z,16.10
2019-04-10T11:21:05.924Z,16.20
2019-04-10T11:23:33.799Z,16.20
2019-04-10T11:26:04.668Z,16.30
2019-04-10T11:28:34.319Z,16.50
2019-04-10T11:31:04.698Z,16.50
2019-04-10T11:33:34.826Z,16.70
2019-04-10T11:36:06.326Z,16.80
2019-04-10T11:38:35.803Z,16.90
2019-04-10T11:41:07.231Z,16.90
2019-04-10T11:43:37.722Z,16.90
2019-04-10T11:46:07.951Z,16.80
2019-04-10T11:48:39.218Z,16.90
2019-04-10T11:51:11.960Z,17.30
2019-04-10T11:53:44.463Z,17.20
2019-04-10T11:56:11.799Z,17.20
2019-04-10T11:58:49.454Z,17.30
2019-04-10T12:01:13.065Z,17.30
2019-04-10T12:03:48.254Z,17.50
2019-04-10T12:06:15.710Z,17.80
2019-04-10T12:09:08.357Z,17.90
2019-04-10T12:11:19.758Z,18.00
2019-04-10T12:13:47.023Z,18.20
2019-04-10T12:16:16.783Z,18.30
2019-04-10T12:18:46.786Z,18.30
2019-04-10T12:21:16.512Z,18.40
2019-04-10T12:23:47.389Z,18.30
2019-04-10T12:26:17.735Z,18.30
2019-04-10T12:28:47.286Z,18.20
2019-04-10T12:31:17.681Z,18.20
2019-04-10T12:33:47.079Z,18.20
2019-04-10T12:36:16.358Z,18.50
2019-04-10T12:38:45.731Z,18.60
2019-04-10T12:41:15.208Z,18.80
2019-04-10T12:43:45.754Z,18.80
2019-04-10T12:46:15.028Z,18.80
2019-04-10T12:48:45.201Z,18.50
2019-04-10T12:51:14.586Z,18.50
2019-04-10T12:53:43.984Z,18.50
2019-04-10T12:56:13.776Z,18.60
2019-04-10T12:58:43.147Z,18.80
2019-04-10T13:01:12.915Z,18.80
2019-04-10T13:03:43.130Z,18.40
2019-04-10T13:06:13.639Z,18.20
2019-04-10T13:08:57.179Z,18.30
2019-04-10T13:11:14.322Z,17.90
2019-04-10T13:13:44.378Z,17.60
2019-04-10T13:16:14.145Z,17.30
2019-04-10T13:18:44.703Z,17.10
2019-04-10T13:21:14.681Z,17.30
2019-04-10T13:23:44.755Z,17.60
2019-04-10T13:26:15.548Z,18.00
2019-04-10T13:28:44.878Z,18.20
2019-04-10T13:31:14.165Z,18.10
2019-04-10T13:33:44.786Z,17.90
2019-04-10T13:36:14.151Z,18.10
2019-04-10T13:38:44.362Z,18.30
2019-04-10T13:41:14.355Z,18.40
2019-04-10T13:43:44.229Z,18.70
2019-04-10T13:46:14.550Z,18.90
2019-04-10T13:48:45.212Z,19.30
2019-04-10T13:51:15.030Z,19.80
2019-04-10T13:53:44.366Z,19.90
2019-04-10T13:56:14.840Z,20.10
2019-04-10T13:58:44.617Z,20.30
2019-04-10T14:01:15.646Z,20.50
2019-04-10T14:03:45.161Z,20.00
2019-04-10T14:06:15.714Z,20.10
2019-04-10T14:09:04.440Z,20.20
2019-04-10T14:11:17.434Z,20.20
2019-04-10T14:13:46.899Z,20.50
2019-04-10T14:16:16.962Z,20.60
2019-04-10T14:18:46.406Z,20.60
2019-04-10T14:21:17.254Z,20.90
2019-04-10T14:23:47.241Z,21.20
2019-04-10T14:26:43.719Z,21.50
2019-04-10T14:29:07.255Z,21.70
2019-04-10T14:31:38.494Z,21.90
2019-04-10T14:34:07.903Z,22.20
2019-04-10T14:36:38.070Z,22.40
2019-04-10T14:39:17.820Z,22.40
2019-04-10T14:41:44.607Z,22.50
2019-04-10T14:44:14.616Z,22.40
2019-04-10T14:46:44.289Z,22.30
2019-04-10T14:49:13.922Z,22.20
2019-04-10T14:51:44.398Z,22.20
2019-04-10T14:54:15.501Z,22.30
2019-04-10T14:56:46.260Z,22.40
2019-04-10T14:59:15.818Z,22.60
2019-04-10T15:01:46.151Z,22.70
2019-04-10T15:04:15.671Z,22.70
2019-04-10T15:06:45.872Z,22.40
2019-04-10T15:09:24.008Z,22.00
2019-04-10T15:11:49.451Z,21.60
2019-04-10T15:14:19.400Z,21.20
2019-04-10T15:16:57.483Z,20.90
2019-04-10T15:19:20.533Z,20.60
2019-04-10T15:21:49.982Z,20.70
2019-04-10T15:24:19.561Z,20.70
2019-04-10T15:26:48.912Z,20.50
2019-04-10T15:29:18.515Z,20.20
2019-04-10T15:31:48.083Z,20.20
2019-04-10T15:34:18.310Z,20.10
2019-04-10T15:36:49.210Z,20.40
2019-04-10T15:39:30.211Z,20.40
2019-04-10T15:41:51.843Z,20.20
2019-04-10T15:44:21.799Z,20.00
2019-04-10T15:46:51.423Z,19.80
2019-04-10T15:49:20.707Z,19.20
2019-04-10T15:51:50.227Z,19.20
2019-04-10T15:54:19.494Z,19.10
2019-04-10T15:56:49.868Z,19.00
2019-04-10T15:59:19.892Z,18.80
2019-04-10T16:01:49.298Z,18.80
2019-04-10T16:04:19.143Z,18.60
2019-04-10T16:06:49.425Z,18.50
2019-04-10T16:09:19.049Z,18.00
2019-04-10T16:11:58.843Z,17.90
2019-04-10T16:14:31.400Z,18.00
2019-04-10T16:17:02.341Z,17.80
2019-04-10T16:19:36.680Z,17.50
2019-04-10T16:22:08.659Z,17.20
2019-04-10T16:24:38.841Z,17.00
2019-04-10T16:27:08.602Z,16.70
2019-04-10T16:29:38.215Z,16.60
2019-04-10T16:32:10.615Z,16.60
2019-04-10T16:34:40.887Z,16.40
2019-04-10T16:37:12.534Z,16.10
2019-04-10T16:39:42.464Z,16.00
2019-04-10T16:42:12.645Z,15.80
2019-04-10T16:44:43.764Z,15.50
2019-04-10T16:47:14.148Z,15.30
2019-04-10T16:49:44.604Z,15.30
2019-04-10T16:52:14.581Z,15.20
2019-04-10T16:54:45.167Z,15.20
2019-04-10T16:57:14.597Z,15.00
2019-04-10T16:59:43.946Z,14.90
2019-04-10T17:02:13.218Z,14.80
2019-04-10T17:04:43.694Z,14.70
2019-04-10T17:07:13.051Z,14.60
2019-04-10T17:09:43.884Z,14.50
2019-04-10T17:12:13.605Z,14.50
2019-04-10T17:14:43.904Z,14.40
2019-04-10T17:17:14.428Z,14.30
2019-04-10T17:19:52.164Z,14.20
2019-04-10T17:22:14.805Z,14.20
2019-04-10T17:24:45.240Z,14.10
2019-04-10T17:27:15.195Z,14.00
2019-04-10T17:29:45.201Z,13.80
2019-04-10T17:32:15.197Z,13.70
2019-04-10T17:34:45.146Z,13.60
2019-04-10T17:37:15.741Z,13.50
2019-04-10T17:39:45.202Z,13.40
2019-04-10T17:42:14.630Z,13.30
2019-04-10T17:44:43.910Z,13.20
2019-04-10T17:47:14.426Z,13.20
2019-04-10T17:49:44.035Z,13.10
2019-04-10T17:52:14.543Z,13.20
2019-04-10T17:54:44.860Z,13.10
2019-04-10T17:57:14.821Z,13.00
2019-04-10T17:59:44.766Z,12.90
2019-04-10T18:02:14.205Z,12.80
2019-04-10T18:04:44.238Z,12.70
2019-04-10T18:07:14.206Z,12.60
2019-04-10T18:09:43.875Z,12.50
2019-04-10T18:12:14.255Z,12.40
2019-04-10T18:14:44.153Z,12.30
2019-04-10T18:17:14.469Z,12.20
2019-04-10T18:19:46.085Z,12.20
2019-04-10T18:22:15.555Z,12.10
2019-04-10T18:24:45.433Z,12.00
2019-04-10T18:27:14.790Z,11.90
2019-04-10T18:29:45.286Z,11.80
2019-04-10T18:32:15.853Z,11.80
2019-04-10T18:34:46.471Z,11.80
2019-04-10T18:37:19.086Z,11.70
2019-04-10T18:39:46.935Z,11.60
2019-04-10T18:42:17.221Z,11.50
2019-04-10T18:44:46.938Z,11.50
2019-04-10T18:47:16.558Z,11.40
2019-04-10T18:49:45.870Z,11.30
2019-04-10T18:52:15.155Z,11.30
2019-04-10T18:54:44.714Z,11.20
2019-04-10T18:57:13.986Z,11.20
2019-04-10T18:59:49.064Z,11.20
2019-04-10T19:02:32.857Z,11.10
2019-04-10T19:05:16.047Z,11.10
2019-04-10T19:07:46.236Z,11.00
2019-04-10T19:10:15.638Z,11.00
2019-04-10T19:12:45.366Z,10.90
2019-04-10T19:15:14.835Z,10.90
2019-04-10T19:17:44.358Z,10.80
2019-04-10T19:20:13.830Z,10.70
2019-04-10T19:22:44.558Z,10.70
2019-04-10T19:25:14.560Z,10.60
2019-04-10T19:27:44.562Z,10.60
2019-04-10T19:30:32.191Z,10.60
2019-04-10T19:33:02.676Z,10.50
2019-04-10T19:35:31.960Z,10.50
2019-04-10T19:38:01.235Z,10.50
2019-04-10T19:40:30.510Z,10.40
2019-04-10T19:43:00.071Z,10.40
2019-04-10T19:45:32.099Z,10.40
2019-04-10T19:48:01.528Z,10.30
2019-04-10T19:50:30.887Z,10.30
2019-04-10T19:53:00.543Z,10.20
2019-04-10T19:55:30.046Z,10.20
2019-04-10T19:57:59.673Z,10.20
2019-04-10T20:00:30.614Z,10.10
2019-04-10T20:02:59.914Z,10.10
2019-04-10T20:05:29.566Z,10.00
2019-04-10T20:07:59.630Z,10.00
2019-04-10T20:10:29.706Z,10.00
2019-04-10T20:12:59.460Z,10.00
2019-04-10T20:15:28.920Z,9.90
2019-04-10T20:17:58.192Z,9.90
2019-04-10T20:20:28.979Z,9.90
2019-04-10T20:22:58.487Z,9.80
2019-04-10T20:25:27.764Z,9.70
2019-04-10T20:28:14.208Z,9.70
2019-04-10T20:30:44.814Z,9.60
2019-04-10T20:33:14.621Z,9.60
2019-04-10T20:35:44.673Z,9.60
2019-04-10T20:38:13.998Z,9.60
2019-04-10T20:40:44.264Z,9.60
2019-04-10T20:43:13.630Z,9.50
2019-04-10T20:45:42.990Z,9.50
2019-04-10T20:48:12.258Z,9.50
2019-04-10T20:50:41.797Z,9.50
2019-04-10T20:53:11.619Z,9.40
2019-04-10T20:55:41.900Z,9.30
2019-04-10T20:58:11.381Z,9.40
2019-04-10T21:00:42.903Z,9.30
2019-04-10T21:03:13.529Z,9.20
2019-04-10T21:05:42.915Z,9.20
2019-04-10T21:08:12.206Z,9.20
2019-04-10T21:10:41.475Z,9.20
2019-04-10T21:13:10.772Z,9.10
2019-04-10T21:15:40.117Z,9.10
2019-04-10T21:18:09.735Z,9.00
2019-04-10T21:20:39.004Z,9.00
2019-04-10T21:23:09.681Z,8.90
2019-04-10T21:25:39.475Z,9.00
2019-04-10T21:28:09.709Z,8.90
2019-04-10T21:30:56.672Z,8.80
2019-04-10T21:33:30.315Z,8.90
2019-04-10T21:35:59.767Z,8.90
2019-04-10T21:38:30.218Z,8.80
2019-04-10T21:40:59.589Z,8.80
2019-04-10T21:43:28.855Z,8.80
2019-04-10T21:45:58.123Z,8.70
2019-04-10T21:48:27.558Z,8.70
2019-04-10T21:50:58.098Z,8.70
2019-04-10T21:53:28.635Z,8.60
2019-04-10T21:55:58.444Z,8.60
2019-04-10T21:58:28.291Z,8.50
2019-04-10T22:01:01.606Z,8.50
2019-04-10T22:03:33.705Z,8.50
2019-04-10T22:06:21.779Z,8.50
2019-04-10T22:08:53.917Z,8.40
2019-04-10T22:11:23.558Z,8.40
2019-04-10T22:13:52.830Z,8.40
2019-04-10T22:16:24.025Z,8.30
2019-04-10T22:18:54.092Z,8.30
2019-04-10T22:21:23.442Z,8.30
2019-04-10T22:23:53.195Z,8.30
2019-04-10T22:26:22.467Z,8.20
2019-04-10T22:28:52.777Z,8.20
2019-04-10T22:31:22.088Z,8.20
2019-04-10T22:33:52.291Z,8.20
2019-04-10T22:36:22.754Z,8.10
2019-04-10T22:38:52.134Z,8.10
2019-04-10T22:41:28.570Z,8.10
2019-04-10T22:43:52.829Z,8.00
2019-04-10T22:46:22.115Z,8.00
2019-04-10T22:48:51.374Z,8.00
2019-04-10T22:51:21.411Z,8.00
2019-04-10T22:53:51.086Z,8.00
2019-04-10T22:56:20.959Z,7.90
2019-04-10T22:58:51.167Z,7.90
2019-04-10T23:01:20.698Z,7.80
2019-04-10T23:03:50.130Z,7.80
2019-04-10T23:06:19.398Z,7.80
2019-04-10T23:08:49.647Z,7.80
2019-04-10T23:11:30.363Z,7.80
2019-04-10T23:13:51.378Z,7.70
2019-04-10T23:16:20.642Z,7.70
2019-04-10T23:18:50.152Z,7.60
2019-04-10T23:21:20.661Z,7.60
2019-04-10T23:23:50.094Z,7.50
2019-04-10T23:26:19.342Z,7.60
2019-04-10T23:28:49.552Z,7.50
2019-04-10T23:31:19.454Z,7.50
2019-04-10T23:33:48.759Z,7.50
2019-04-10T23:36:18.158Z,7.40
2019-04-10T23:38:47.971Z,7.40
2019-04-10T23:41:17.765Z,7.30
2019-04-10T23:43:48.185Z,7.20
2019-04-10T23:46:18.065Z,7.20
2019-04-10T23:48:47.455Z,7.10
2019-04-10T23:51:16.868Z,7.00
2019-04-10T23:53:46.917Z,7.00
2019-04-10T23:56:17.807Z,6.90
2019-04-10T23:58:48.138Z,6.90
